createdAt,value
2022-09-07T00:01:54.960Z,5.57
2022-09-07T00:04:22.677Z,6.93
2022-09-07T00:06:50.429Z,6.55
2022-09-07T00:09:18.100Z,7.18
2022-09-07T00:11:46.516Z,8.00
2022-09-07T00:14:14.364Z,8.52
2022-09-07T00:16:42.274Z,8.73
2022-09-07T00:19:11.382Z,8.00
2022-09-07T00:21:39.117Z,7.60
2022-09-07T00:24:07.096Z,7.88
2022-09-07T00:26:35.189Z,8.32
2022-09-07T00:29:04.508Z,8.57
2022-09-07T00:31:32.848Z,8.60
2022-09-07T00:34:01.945Z,8.20
2022-09-07T00:36:31.293Z,8.85
2022-09-07T00:38:59.618Z,9.00
2022-09-07T00:41:27.381Z,8.55
2022-09-07T00:43:56.860Z,9.38
2022-09-07T00:46:26.666Z,10.40
2022-09-07T00:48:58.166Z,9.23
2022-09-07T00:51:28.950Z,9.35
2022-09-07T00:54:00.897Z,9.85
2022-09-07T00:56:32.637Z,9.95
2022-09-07T00:59:00.585Z,9.07
2022-09-07T01:01:28.517Z,11.02
2022-09-07T01:03:58.531Z,11.85
2022-09-07T01:06:29.004Z,10.00
2022-09-07T01:09:02.604Z,9.68
2022-09-07T01:11:32.365Z,8.75
2022-09-07T01:13:59.981Z,9.85
2022-09-07T01:16:37.806Z,9.35
2022-09-07T01:19:21.753Z,9.88
2022-09-07T01:21:59.623Z,9.98
2022-09-07T01:24:39.889Z,9.20
2022-09-07T01:27:52.146Z,9.30
2022-09-07T01:30:23.147Z,9.55
2022-09-07T01:33:01.916Z,9.77
2022-09-07T01:35:35.202Z,9.18
2022-09-07T01:38:07.859Z,11.13
2022-09-07T01:40:42.046Z,11.38
2022-09-07T01:43:13.216Z,10.73
2022-09-07T01:45:44.049Z,12.65
2022-09-07T01:48:15.980Z,10.95
2022-09-07T01:50:48.006Z,10.23
2022-09-07T01:53:17.746Z,11.18
2022-09-07T01:55:48.102Z,11.25
2022-09-07T01:58:19.622Z,10.48
2022-09-07T02:00:52.216Z,11.93
2022-09-07T02:03:23.925Z,10.95
2022-09-07T02:05:58.402Z,11.52
2022-09-07T02:08:28.704Z,12.25
2022-09-07T02:11:00.534Z,12.18
2022-09-07T02:13:32.306Z,11.63
2022-09-07T02:16:03.172Z,12.07
2022-09-07T02:18:34.578Z,11.02
2022-09-07T02:21:04.065Z,10.65
2022-09-07T02:23:35.025Z,11.60
2022-09-07T02:26:04.948Z,10.38
2022-09-07T02:28:35.341Z,11.07
2022-09-07T02:31:04.551Z,9.52
2022-09-07T02:33:32.713Z,10.70
2022-09-07T02:36:01.716Z,10.27
2022-09-07T02:38:29.508Z,9.73
2022-09-07T02:40:59.355Z,10.95
2022-09-07T02:43:27.632Z,10.48
2022-09-07T02:46:10.250Z,9.88
2022-09-07T02:48:45.112Z,10.25
2022-09-07T02:51:16.915Z,10.48
2022-09-07T02:53:54.624Z,10.35
2022-09-07T02:56:33.448Z,8.35
2022-09-07T02:59:06.581Z,8.88
2022-09-07T03:01:38.096Z,9.30
2022-09-07T03:04:09.128Z,10.60
2022-09-07T03:06:40.716Z,10.63
2022-09-07T03:09:11.560Z,9.60
2022-09-07T03:11:39.252Z,9.57
2022-09-07T03:14:18.143Z,10.13
2022-09-07T03:16:48.100Z,9.77
2022-09-07T03:19:15.749Z,8.20
2022-09-07T03:21:43.569Z,8.10
2022-09-07T03:24:11.266Z,8.35
2022-09-07T03:26:41.822Z,8.60
2022-09-07T03:29:09.530Z,9.10
2022-09-07T03:31:38.581Z,8.50
2022-09-07T03:34:07.977Z,8.52
2022-09-07T03:36:36.012Z,7.65
2022-09-07T03:39:04.341Z,7.43
2022-09-07T03:41:32.017Z,8.40
2022-09-07T03:44:03.857Z,9.05
2022-09-07T03:46:31.609Z,7.97
2022-09-07T03:48:59.290Z,8.55
2022-09-07T03:51:28.512Z,7.97
2022-09-07T03:53:56.330Z,8.40
2022-09-07T03:56:25.813Z,9.27
2022-09-07T03:58:54.990Z,8.52
2022-09-07T04:01:24.136Z,8.32
2022-09-07T04:03:52.461Z,7.45
2022-09-07T04:06:20.628Z,7.60
2022-09-07T04:08:49.633Z,7.10
2022-09-07T04:11:18.753Z,8.05
2022-09-07T04:13:46.873Z,7.43
2022-09-07T04:16:17.103Z,7.25
2022-09-07T04:18:44.869Z,8.00
2022-09-07T04:21:12.726Z,8.07
2022-09-07T04:23:40.431Z,7.43
2022-09-07T04:26:15.005Z,7.22
2022-09-07T04:28:42.737Z,7.45
2022-09-07T04:31:10.506Z,6.95
2022-09-07T04:33:38.352Z,7.00
2022-09-07T04:36:06.266Z,7.10
2022-09-07T04:38:33.998Z,6.50
2022-09-07T04:41:02.490Z,7.18
2022-09-07T04:43:31.639Z,7.43
2022-09-07T04:45:59.584Z,6.65
2022-09-07T04:48:27.492Z,6.78
2022-09-07T04:50:55.126Z,6.97
2022-09-07T04:53:22.784Z,6.60
2022-09-07T04:55:50.489Z,7.32
2022-09-07T04:58:18.199Z,7.20
2022-09-07T05:00:47.351Z,7.03
2022-09-07T05:03:15.047Z,6.57
2022-09-07T05:05:42.677Z,7.00
2022-09-07T05:08:10.335Z,6.82
2022-09-07T05:10:38.072Z,7.10
2022-09-07T05:13:05.865Z,6.35
2022-09-07T05:15:33.740Z,6.97
2022-09-07T05:18:03.715Z,7.47
2022-09-07T05:20:31.410Z,6.75
2022-09-07T05:22:59.544Z,7.07
2022-09-07T05:25:29.014Z,7.63
2022-09-07T05:27:56.826Z,8.23
2022-09-07T05:33:13.606Z,9.07
2022-09-07T05:35:41.214Z,10.38
2022-09-07T05:38:08.896Z,11.25
2022-09-07T05:40:40.577Z,11.32
2022-09-07T05:43:09.930Z,13.07
2022-09-07T05:45:37.657Z,13.90
2022-09-07T05:48:05.438Z,14.70
2022-09-07T05:50:34.480Z,13.93
2022-09-07T05:53:02.315Z,14.65
2022-09-07T05:55:32.142Z,15.75
2022-09-07T05:57:59.796Z,14.85
2022-09-07T06:00:27.666Z,14.80
2022-09-07T06:02:55.673Z,15.68
2022-09-07T06:05:23.452Z,15.50
2022-09-07T06:07:53.097Z,15.77
2022-09-07T06:13:08.534Z,16.75
2022-09-07T06:15:36.190Z,17.33
2022-09-07T06:18:03.848Z,16.30
2022-09-07T06:20:31.589Z,16.73
2022-09-07T06:23:01.209Z,17.75
2022-09-07T06:25:28.825Z,17.20
2022-09-07T06:27:56.542Z,16.88
2022-09-07T06:30:25.283Z,17.67
2022-09-07T06:32:52.991Z,16.00
2022-09-07T06:37:48.170Z,16.65
2022-09-07T06:40:17.282Z,15.85
2022-09-07T06:45:12.874Z,15.13
2022-09-07T06:47:40.808Z,16.50
2022-09-07T06:50:09.872Z,16.23
2022-09-07T06:55:29.039Z,16.08
2022-09-07T06:57:56.789Z,19.37
2022-09-07T07:00:24.554Z,17.98
2022-09-07T07:02:52.321Z,18.95
2022-09-07T07:10:15.222Z,16.85
2022-09-07T07:15:11.300Z,18.50
2022-09-07T07:17:38.982Z,18.80
2022-09-07T07:20:07.605Z,18.30
2022-09-07T07:22:50.724Z,16.52
2022-09-07T07:25:18.419Z,17.27
2022-09-07T07:27:47.986Z,18.20
2022-09-07T07:30:16.488Z,16.67
2022-09-07T07:32:45.139Z,19.25
2022-09-07T07:48:04.587Z,18.08
2022-09-07T07:50:33.165Z,18.73
2022-09-07T07:55:49.714Z,20.60
2022-09-07T07:58:19.053Z,19.73
2022-09-07T08:00:55.867Z,20.45
2022-09-07T08:03:25.162Z,19.02
2022-09-07T08:05:53.771Z,18.15
2022-09-07T08:08:22.018Z,19.55
2022-09-07T08:10:49.955Z,19.05
2022-09-07T08:13:19.156Z,19.63
2022-09-07T11:40:21.443Z,9.23
2022-09-07T11:42:55.854Z,9.32
2022-09-07T11:45:28.582Z,7.80
2022-09-07T13:14:08.469Z,16.75
2022-09-07T13:20:03.842Z,15.37
2022-09-07T13:23:11.869Z,15.52
2022-09-07T13:25:46.027Z,13.35
2022-09-07T13:28:25.239Z,13.50
2022-09-07T13:31:03.287Z,12.80
2022-09-07T13:33:48.315Z,13.17
2022-09-07T13:36:26.307Z,11.85
2022-09-07T13:38:55.056Z,12.35
2022-09-07T13:41:24.214Z,15.02
2022-09-07T13:43:54.606Z,15.60
2022-09-07T13:46:35.802Z,17.02
2022-09-07T13:49:08.097Z,16.77
2022-09-07T13:51:40.917Z,18.70
2022-09-07T13:54:15.505Z,19.92
2022-09-07T13:56:50.306Z,19.38
2022-09-07T13:59:20.996Z,18.83
2022-09-07T14:01:50.530Z,18.02
2022-09-07T14:04:24.300Z,18.65
2022-09-07T14:06:51.921Z,16.27
2022-09-07T14:09:22.426Z,16.58
2022-09-07T14:11:52.606Z,18.17
2022-09-07T14:14:21.992Z,16.77
2022-09-07T14:16:55.808Z,17.67
2022-09-07T14:19:25.692Z,17.20
2022-09-07T14:21:58.107Z,16.60
2022-09-07T14:24:32.148Z,13.93
2022-09-07T14:27:00.622Z,13.90
2022-09-07T14:29:31.136Z,12.88
2022-09-07T14:32:01.787Z,13.05
2022-09-07T14:34:32.563Z,12.32
2022-09-07T14:37:03.424Z,12.90
2022-09-07T14:39:31.747Z,15.27
2022-09-07T14:41:59.865Z,13.85
2022-09-07T14:44:30.035Z,11.18
2022-09-07T14:47:00.330Z,11.93
2022-09-07T14:49:28.881Z,13.98
2022-09-07T14:51:56.969Z,11.32
2022-09-07T14:54:27.772Z,12.13
2022-09-07T14:57:27.352Z,11.10
2022-09-07T14:59:57.219Z,10.15
2022-09-07T15:02:33.202Z,9.77
2022-09-07T15:05:19.028Z,8.73
2022-09-07T15:07:47.764Z,9.55
2022-09-07T15:10:17.363Z,8.75
2022-09-07T15:12:45.051Z,9.25
2022-09-07T15:15:26.148Z,10.30
2022-09-07T15:18:01.859Z,10.02
2022-09-07T15:20:36.029Z,9.53
2022-09-07T15:23:04.988Z,9.77
2022-09-07T15:25:33.002Z,10.60
2022-09-07T15:28:00.622Z,10.50
2022-09-07T15:30:28.517Z,10.17
2022-09-07T15:32:57.844Z,10.05
2022-09-07T15:35:25.759Z,8.73
2022-09-07T15:38:01.807Z,9.27
2022-09-07T15:40:33.286Z,7.90
2022-09-07T15:43:03.057Z,7.30
2022-09-07T15:45:34.537Z,7.47
2022-09-07T15:48:04.990Z,8.02
2022-09-07T15:50:32.981Z,6.63
2022-09-07T15:53:01.759Z,6.90
2022-09-07T15:55:29.535Z,8.98
2022-09-07T15:58:10.752Z,9.30
2022-09-07T16:00:39.175Z,9.63
2022-09-07T16:03:08.993Z,9.07
2022-09-07T16:05:39.771Z,9.10
2022-09-07T16:11:04.307Z,8.60
2022-09-07T16:13:32.567Z,8.25
2022-09-07T16:16:00.401Z,8.50
2022-09-07T16:18:32.851Z,8.07
2022-09-07T16:21:05.853Z,9.63
2022-09-07T16:23:33.601Z,9.00
2022-09-07T16:26:02.697Z,9.60
2022-09-07T16:28:30.670Z,10.27
2022-09-07T16:30:59.169Z,9.20
2022-09-07T16:33:36.000Z,9.80
2022-09-07T16:36:09.164Z,8.93
2022-09-07T16:38:45.478Z,8.98
2022-09-07T16:41:14.826Z,8.80
2022-09-07T16:43:42.699Z,8.98
2022-09-07T16:46:13.443Z,10.05
2022-09-07T16:48:41.394Z,8.75
2022-09-07T16:51:11.913Z,9.55
2022-09-07T16:53:40.030Z,8.65
2022-09-07T16:56:09.570Z,9.77
2022-09-07T16:58:38.623Z,10.90
2022-09-07T17:01:06.709Z,9.68
2022-09-07T17:03:34.669Z,10.30
2022-09-07T17:06:02.631Z,9.85
2022-09-07T17:08:31.684Z,10.43
2022-09-07T17:11:00.711Z,9.77
2022-09-07T17:13:28.781Z,8.45
2022-09-07T17:16:00.010Z,8.90
2022-09-07T17:21:16.078Z,8.40
2022-09-07T17:23:51.912Z,8.20
2022-09-07T17:26:22.441Z,8.20
2022-09-07T17:28:51.786Z,8.05
2022-09-07T17:34:08.830Z,7.10
2022-09-07T17:36:36.487Z,7.38
2022-09-07T17:39:20.945Z,7.30
2022-09-07T17:41:52.753Z,7.43
2022-09-07T17:44:21.465Z,7.05
2022-09-07T17:46:49.157Z,6.80
2022-09-07T17:49:17.727Z,6.80
2022-09-07T17:51:45.735Z,6.90
2022-09-07T17:54:17.442Z,7.10
2022-09-07T17:56:45.783Z,7.40
2022-09-07T18:02:01.488Z,6.50
2022-09-07T18:04:29.189Z,6.10
2022-09-07T18:06:56.818Z,6.43
2022-09-07T18:09:25.903Z,6.45
2022-09-07T18:11:53.514Z,7.13
2022-09-07T18:14:21.160Z,6.53
2022-09-07T18:16:50.308Z,6.30
2022-09-07T18:19:18.641Z,6.43
2022-09-07T18:21:47.672Z,6.30
2022-09-07T18:24:17.891Z,5.90
2022-09-07T18:26:51.541Z,6.40
2022-09-07T18:29:31.174Z,5.88
2022-09-07T18:32:00.781Z,6.70
2022-09-07T18:34:30.715Z,6.70
2022-09-07T18:36:59.146Z,6.10
2022-09-07T18:39:27.202Z,6.23
2022-09-07T18:41:56.336Z,6.60
2022-09-07T18:47:21.769Z,7.07
2022-09-07T18:49:50.946Z,7.20
2022-09-07T18:55:07.151Z,9.07
2022-09-07T18:57:36.684Z,9.07
2022-09-07T19:00:05.445Z,8.30
2022-09-07T19:02:33.394Z,8.27
2022-09-07T19:07:48.821Z,7.55
2022-09-07T19:10:17.638Z,6.90
2022-09-07T19:12:46.720Z,6.75
2022-09-07T19:15:14.913Z,6.70
2022-09-07T19:17:42.620Z,6.63
2022-09-07T19:20:11.055Z,7.47
2022-09-07T19:22:38.965Z,9.30
2022-09-07T19:25:07.409Z,8.70
2022-09-07T19:27:35.001Z,8.88
2022-09-07T19:30:04.425Z,8.85
2022-09-07T19:32:32.118Z,8.70
2022-09-07T19:34:59.704Z,9.13
2022-09-07T19:37:28.967Z,8.87
2022-09-07T19:39:56.756Z,8.52
2022-09-07T19:42:25.375Z,9.75
2022-09-07T19:44:54.070Z,9.93
2022-09-07T19:47:23.272Z,9.98
2022-09-07T19:49:52.239Z,11.30
2022-09-07T19:52:19.885Z,11.13
2022-09-07T19:54:47.593Z,10.10
2022-09-07T19:57:15.210Z,10.77
2022-09-07T19:59:45.580Z,9.77
2022-09-07T20:02:13.369Z,10.07
2022-09-07T20:04:42.492Z,10.27
2022-09-07T20:07:10.154Z,10.07
2022-09-07T20:09:37.835Z,9.05
2022-09-07T20:12:06.751Z,8.90
2022-09-07T20:14:34.375Z,8.95
2022-09-07T20:17:02.423Z,8.93
2022-09-07T20:19:30.066Z,10.20
2022-09-07T20:21:59.198Z,10.17
2022-09-07T20:24:26.841Z,9.45
2022-09-07T20:26:54.527Z,9.50
2022-09-07T20:29:29.481Z,9.80
2022-09-07T20:31:58.255Z,9.20
2022-09-07T20:34:26.203Z,9.02
2022-09-07T20:36:54.355Z,8.85
2022-09-07T20:39:23.901Z,8.70
2022-09-07T20:41:51.520Z,9.68
2022-09-07T20:44:19.364Z,9.00
2022-09-07T20:46:47.082Z,8.50
2022-09-07T20:49:14.785Z,8.60
2022-09-07T20:51:42.456Z,8.88
2022-09-07T20:54:10.301Z,9.35
2022-09-07T20:56:39.323Z,8.80
2022-09-07T20:59:07.046Z,8.63
2022-09-07T21:01:35.088Z,8.93
2022-09-07T21:04:03.948Z,9.10
2022-09-07T21:06:32.638Z,8.88
2022-09-07T21:09:00.887Z,8.98
2022-09-07T21:11:30.129Z,9.07
2022-09-07T21:14:00.540Z,9.40
2022-09-07T21:16:28.856Z,9.27
2022-09-07T21:18:58.749Z,9.15
2022-09-07T21:21:27.503Z,10.15
2022-09-07T21:23:56.658Z,10.90
2022-09-07T21:26:24.942Z,9.67
2022-09-07T21:28:56.810Z,9.30
2022-09-07T21:31:26.205Z,8.60
2022-09-07T21:33:57.698Z,9.07
2022-09-07T21:36:25.905Z,9.57
2022-09-07T21:38:54.244Z,9.82
2022-09-07T21:41:23.921Z,9.55
2022-09-07T21:43:55.685Z,10.07
2022-09-07T21:46:23.535Z,10.10
2022-09-07T21:48:52.710Z,9.63
2022-09-07T21:51:20.456Z,9.55
2022-09-07T21:53:52.006Z,10.33
2022-09-07T21:56:19.974Z,10.05
2022-09-07T21:58:47.785Z,9.90
2022-09-07T22:01:17.380Z,10.13
2022-09-07T22:03:46.126Z,10.05
2022-09-07T22:06:15.720Z,10.40
2022-09-07T22:08:44.927Z,9.27
2022-09-07T22:11:14.757Z,11.00
2022-09-07T22:13:42.939Z,10.50
2022-09-07T22:16:11.567Z,10.55
2022-09-07T22:18:40.204Z,10.68
2022-09-07T22:21:09.549Z,10.90
2022-09-07T22:23:39.962Z,11.70
2022-09-07T22:26:08.039Z,11.97
2022-09-07T22:28:36.072Z,11.93
2022-09-07T22:31:11.727Z,11.02
2022-09-07T22:33:39.451Z,12.48
2022-09-07T22:36:12.195Z,11.80
2022-09-07T22:38:41.406Z,11.95
2022-09-07T22:41:10.182Z,11.65
2022-09-07T22:43:38.345Z,11.30
2022-09-07T22:46:06.811Z,11.82
2022-09-07T22:48:34.481Z,12.95
2022-09-07T22:51:02.831Z,11.17
2022-09-07T22:53:32.015Z,10.47
2022-09-07T22:56:01.673Z,11.38
2022-09-07T22:58:29.539Z,12.75
2022-09-07T23:00:59.275Z,12.07
2022-09-07T23:03:27.080Z,12.15
2022-09-07T23:05:54.924Z,11.45
2022-09-07T23:08:22.750Z,11.45
2022-09-07T23:10:50.348Z,13.05
2022-09-07T23:13:19.433Z,12.60
2022-09-07T23:15:48.132Z,14.20
2022-09-07T23:18:16.394Z,14.23
2022-09-07T23:20:44.058Z,14.98
2022-09-07T23:23:12.037Z,14.20
2022-09-07T23:25:40.628Z,16.00
2022-09-07T23:28:09.814Z,15.73
2022-09-07T23:30:40.405Z,18.50
2022-09-07T23:33:08.304Z,19.00
2022-09-07T23:35:35.921Z,19.77
2022-09-07T23:38:03.509Z,18.67
2022-09-07T23:40:32.617Z,18.55
2022-09-07T23:43:00.408Z,18.47
2022-09-07T23:45:28.180Z,19.63
2022-09-07T23:47:57.253Z,20.30
2022-09-07T23:50:24.933Z,19.77
2022-09-07T23:52:52.602Z,20.63
2022-09-07T23:55:20.211Z,18.58
2022-09-07T23:57:49.071Z,18.98
